Mineral Point, WI

03:19 CDT le 26 juillet 2016 (GMT -0500)
KWIMINER1 | | Change Station

Alt. 1066 ft 42.85 °N, 90.18 °W | Updated 6 minutes ago

Clear
Ciel dégagé
62.0 ° F
Paraît 62.0 ° F
N
0.0
Vent Variable Vent de SSE
Gusts 0.0 mph

Aujourd'hui
Haut(e) -- | Bas -- ° F
--% Risque de précip.
Hier
Haut(e) -- | Bas -- ° F
Precip. -- pouce
Pression 30.07 pouce
Visibilité 10.0 Miles terrestres
Nuages Ciel dégagé
Point de rosée 62 ° F
Humidité 98%
Précipitations 0.00 pouce
Profondeur de la couche neigeuse Non disponible.
5:46 AM 8:27 PM
Lune gibbeuse décroissante, 57% visible
METAR KMRJ 260750Z AUTO 00000KT 10SM CLR 20/18 A3007 RMK AO2
Pression 30.07 pouce
Visibilité 10.0 Miles terrestres
Nuages Ciel dégagé
Point de rosée 62 ° F
Humidité 98%
Précipitations 0.00 pouce
Profondeur de la couche neigeuse Non disponible.
5:46 AM 8:27 PM
Lune gibbeuse décroissante, 57% visible
METAR KMRJ 260750Z AUTO 00000KT 10SM CLR 20/18 A3007 RMK AO2

10-Day Weather Forecast

Almanac

Astronomie

Jul. 26, 2016 Lever Coucher
Temps réel
Crépuscule civil
Crépuscule nautique
Crépuscule astronomique
Lune
Durée de lumière visible
Longueur du jour
Tomorrow will be .
, % of the Moon is Illuminated

Extrêmes aujourd'hui

State Highs State Lows

Community

WunderPhotos

Upload Photos

1,927,551 Photos téléchargées !

WunderBlog® & News

Nearby

Qualité de l'air

  Qualité de l'air Indice de la qualité de l'air Polluant
Not available.

Épaisseur de neige

Station Depth Altitude

Activité sismique

Ville Distance Mag. Time & Date
Minimum magnitude displayed is 2.5.

Températures des eaux côtières

Lieu Température

Stations

Stations météo à proximité

Emplacement de la station Température Refroidissement éolien Point de rosée Humidité Vent Precip. Alt. Mise à jour Type
                   

Watches & Warnings

There are currently no watches in effect.